Spirit Of New York — WCW9332 — position and weather

sailwx.info

Track history (hours):
 
Tides and Currents Weather Stations Pressure Air Temp Water Temp Dewpoint Dewpoint Depression Visibility Wind Speed Wind Dir Waves Ship Positions

Spirit Of New York

Owner: SPIRIT CRUISES LLC, NEW YORK, NY. More information available from US FCC via Universal Licensing System and Coast Guard Vessel Documentation Center.

Last reported at 2016-Feb-14 18:33 UTC. Time now 2016-Feb-14 21:04 UTC.
Position N 40°44' W 074°01'.

Length 62 m.

Type: Passenger vessel. MMSI: 338897000.

Date/timePositionNaut miles runAvg speedWind from/ knotsBaromVisibWave heightAir tempDewpointWater temp
2016-Feb-14 18:33N 40°44' W 074°01'0 0.3
2016-Feb-14 17:33N 40°44' W 074°01'2 1.5
2016-Feb-14 16:33N 40°45' W 074°01'0 0.0
2016-Feb-14 15:33N 40°45' W 074°01'0 0.0
2016-Feb-14 06:24N 40°45' W 074°01'4 4.3
2016-Feb-14 05:33N 40°41' W 074°02'4 3.7
2016-Feb-14 04:33N 40°45' W 074°01'0 0.0
2016-Feb-14 03:33N 40°45' W 074°01'1 1.0
2016-Feb-14 02:33N 40°44' W 074°01'2 1.8
2016-Feb-14 01:33N 40°42' W 073°60'3 3.4
2016-Feb-14 00:33N 40°46' W 074°01'1 0.0
2016-Feb-13 02:33N 40°45' W 074°01'4 3.7
2016-Feb-13 01:33N 40°41' W 074°02'5 4.5
2016-Feb-13 00:33N 40°46' W 074°01'1 0.8
2016-Feb-12 23:33N 40°45' W 074°01'  
2016-Feb-07 02:33N 40°45' W 074°01'1 0.7
2016-Feb-07 01:33N 40°46' W 074°01'4 4.5
2016-Feb-07 00:33N 40°41' W 074°02'4 3.8
2016-Feb-06 23:33N 40°45' W 074°01'1 0.2
2016-Feb-06 18:33N 40°44' W 074°01'2 2.0
2016-Feb-06 17:33N 40°42' W 074°00'  
Track history (hours):
 
Tides and Currents Weather Stations Pressure Air Temp Water Temp Dewpoint Dewpoint Depression Visibility Wind Speed Wind Dir Waves Ship Positions

Spirit Of New York

Owner: SPIRIT CRUISES LLC, NEW YORK, NY. More information available from US FCC via Universal Licensing System and Coast Guard Vessel Documentation Center.

Last reported at 2016-Feb-14 18:33 UTC. Time now 2016-Feb-14 21:04 UTC.
Position N 40°44' W 074°01'.

Length 62 m.

Type: Passenger vessel. MMSI: 338897000.

Date/timePositionNaut miles runAvg speedWind from/ knotsBaromVisibWave heightAir tempDewpointWater temp
2016-Feb-14 18:33N 40°44' W 074°01'0 0.3
2016-Feb-14 17:33N 40°44' W 074°01'2 1.5
2016-Feb-14 16:33N 40°45' W 074°01'0 0.0
2016-Feb-14 15:33N 40°45' W 074°01'0 0.0
2016-Feb-14 06:24N 40°45' W 074°01'4 4.3
2016-Feb-14 05:33N 40°41' W 074°02'4 3.7
2016-Feb-14 04:33N 40°45' W 074°01'0 0.0
2016-Feb-14 03:33N 40°45' W 074°01'1 1.0
2016-Feb-14 02:33N 40°44' W 074°01'2 1.8
2016-Feb-14 01:33N 40°42' W 073°60'3 3.4
2016-Feb-14 00:33N 40°46' W 074°01'1 0.0
2016-Feb-13 02:33N 40°45' W 074°01'4 3.7
2016-Feb-13 01:33N 40°41' W 074°02'5 4.5
2016-Feb-13 00:33N 40°46' W 074°01'1 0.8
2016-Feb-12 23:33N 40°45' W 074°01'  
2016-Feb-07 02:33N 40°45' W 074°01'1 0.7
2016-Feb-07 01:33N 40°46' W 074°01'4 4.5
2016-Feb-07 00:33N 40°41' W 074°02'4 3.8
2016-Feb-06 23:33N 40°45' W 074°01'1 0.2
2016-Feb-06 18:33N 40°44' W 074°01'2 2.0
2016-Feb-06 17:33N 40°42' W 074°00'  

Dump ship's entire track history